createdAt,value
2022-11-14T00:03:28.923Z,7.35
2022-11-14T00:07:10.784Z,7.63
2022-11-14T00:10:52.770Z,7.43
2022-11-14T00:14:34.675Z,7.15
2022-11-14T00:18:17.636Z,7.45
2022-11-14T00:22:00.359Z,6.93
2022-11-14T00:25:43.602Z,7.68
2022-11-14T00:29:25.433Z,7.85
2022-11-14T00:33:07.304Z,7.28
2022-11-14T00:36:49.129Z,7.25
2022-11-14T00:40:30.995Z,6.75
2022-11-14T00:44:12.807Z,7.00
2022-11-14T00:47:54.657Z,6.93
2022-11-14T00:51:36.855Z,7.18
2022-11-14T00:55:18.709Z,6.95
2022-11-14T00:59:00.627Z,6.45
2022-11-14T01:02:42.519Z,6.60
2022-11-14T01:06:24.381Z,6.78
2022-11-14T01:10:06.979Z,7.35
2022-11-14T01:13:49.847Z,6.65
2022-11-14T01:17:32.421Z,7.43
2022-11-14T01:21:14.738Z,7.03
2022-11-14T01:24:58.472Z,7.28
2022-11-14T01:28:41.144Z,6.85
2022-11-14T01:32:23.020Z,7.45
2022-11-14T01:36:05.652Z,6.97
2022-11-14T01:39:47.530Z,6.53
2022-11-14T01:43:36.621Z,6.07
2022-11-14T01:47:26.070Z,6.97
2022-11-14T01:51:18.282Z,7.00
2022-11-14T01:55:03.044Z,6.38
2022-11-14T01:58:50.001Z,6.47
2022-11-14T02:02:31.926Z,6.95
2022-11-14T02:06:16.818Z,6.45
2022-11-14T02:10:02.014Z,6.43
2022-11-14T02:13:43.978Z,6.13
2022-11-14T02:17:30.054Z,6.57
2022-11-14T02:24:54.464Z,6.78
2022-11-14T02:28:36.328Z,6.53
2022-11-14T02:32:18.285Z,6.75
2022-11-14T02:36:00.109Z,6.47
2022-11-14T02:39:41.990Z,7.03
2022-11-14T02:43:23.805Z,7.40
2022-11-14T02:47:05.747Z,6.82
2022-11-14T02:50:50.736Z,7.25
2022-11-14T02:54:32.678Z,6.95
2022-11-14T02:58:14.532Z,6.72
2022-11-14T03:01:56.535Z,6.72
2022-11-14T03:05:38.430Z,7.05
2022-11-14T03:09:20.474Z,6.57
2022-11-14T03:13:02.361Z,7.10
2022-11-14T03:16:44.246Z,7.05
2022-11-14T03:20:26.068Z,7.10
2022-11-14T03:24:08.306Z,6.93
2022-11-14T03:27:50.120Z,7.32
2022-11-14T03:31:32.001Z,7.03
2022-11-14T03:35:13.889Z,7.60
2022-11-14T03:38:55.783Z,7.78
2022-11-14T03:42:37.685Z,7.45
2022-11-14T03:46:19.572Z,7.55
2022-11-14T03:50:01.495Z,7.15
2022-11-14T03:53:43.400Z,7.65
2022-11-14T03:57:25.260Z,7.50
2022-11-14T04:01:07.292Z,6.88
2022-11-14T04:04:49.239Z,6.75
2022-11-14T04:08:32.135Z,6.32
2022-11-14T04:12:15.894Z,6.57
2022-11-14T04:15:58.895Z,5.90
2022-11-14T04:19:40.715Z,5.90
2022-11-14T04:23:22.630Z,5.63
2022-11-14T04:27:04.635Z,5.80
2022-11-14T04:30:46.588Z,5.85
2022-11-14T04:34:28.475Z,6.00
2022-11-14T04:38:10.569Z,5.70
2022-11-14T04:41:52.377Z,5.45
2022-11-14T04:45:34.274Z,5.65
2022-11-14T04:49:16.131Z,5.45
2022-11-14T04:52:58.012Z,5.43
2022-11-14T04:56:39.864Z,5.72
2022-11-14T05:00:22.498Z,5.47
2022-11-14T05:04:04.520Z,4.88
2022-11-14T05:07:46.381Z,5.30
2022-11-14T05:11:29.504Z,5.22
2022-11-14T05:15:11.484Z,5.10
2022-11-14T05:18:55.068Z,5.25
2022-11-14T05:22:36.928Z,4.72
2022-11-14T05:26:19.350Z,4.47
2022-11-14T05:30:01.271Z,4.47
2022-11-14T05:33:43.179Z,4.85
2022-11-14T05:37:25.043Z,5.10
2022-11-14T05:41:12.457Z,5.25
2022-11-14T05:44:54.366Z,4.78
2022-11-14T05:48:39.752Z,4.70
2022-11-14T05:52:21.630Z,5.07
2022-11-14T05:56:06.013Z,4.80
2022-11-14T05:59:47.869Z,5.00
2022-11-14T06:03:38.049Z,4.68
2022-11-14T06:07:20.506Z,4.93
2022-11-14T06:11:06.965Z,4.40
2022-11-14T06:14:48.847Z,4.57
2022-11-14T06:18:32.084Z,4.15
2022-11-14T06:22:14.226Z,4.40
2022-11-14T06:26:04.754Z,4.68
2022-11-14T06:29:46.628Z,4.50
2022-11-14T06:33:29.943Z,4.57
2022-11-14T06:37:11.808Z,4.30
2022-11-14T06:41:01.104Z,4.88
2022-11-14T06:44:43.001Z,5.03
2022-11-14T06:48:24.846Z,5.03
2022-11-14T06:52:06.696Z,5.82
2022-11-14T06:55:56.012Z,5.82
2022-11-14T06:59:37.868Z,5.55
2022-11-14T07:03:19.782Z,5.10
2022-11-14T07:07:01.750Z,5.35
2022-11-14T07:10:43.758Z,5.50
2022-11-14T07:14:25.615Z,4.90
2022-11-14T07:18:07.472Z,5.00
2022-11-14T07:21:49.336Z,5.10
2022-11-14T07:25:31.229Z,5.00
2022-11-14T07:29:13.107Z,4.95
2022-11-14T07:32:58.856Z,5.30
2022-11-14T07:36:40.688Z,5.63
2022-11-14T07:40:22.524Z,5.43
2022-11-14T07:44:04.625Z,5.60
2022-11-14T07:47:46.445Z,4.82
2022-11-14T07:51:28.386Z,5.78
2022-11-14T07:55:10.206Z,5.65
2022-11-14T07:58:52.085Z,5.57
2022-11-14T08:02:33.959Z,5.75
2022-11-14T08:06:16.836Z,5.63
2022-11-14T08:09:58.728Z,5.32
2022-11-14T08:13:40.676Z,5.85
2022-11-14T08:17:23.507Z,5.93
2022-11-14T08:21:06.046Z,6.03
2022-11-14T08:24:47.884Z,5.97
2022-11-14T08:28:30.092Z,5.40
2022-11-14T08:32:14.289Z,5.43
2022-11-14T08:35:56.184Z,5.25
2022-11-14T08:39:38.108Z,5.70
2022-11-14T08:43:19.992Z,5.80
2022-11-14T08:47:02.409Z,6.30
2022-11-14T08:50:44.298Z,5.03
2022-11-14T08:54:26.140Z,5.30
2022-11-14T08:58:08.081Z,5.60
2022-11-14T09:01:49.947Z,5.00
2022-11-14T09:05:31.870Z,4.90
2022-11-14T09:09:14.318Z,4.60
2022-11-14T09:12:57.443Z,4.78
2022-11-14T09:16:39.429Z,4.47
2022-11-14T09:20:25.919Z,3.90
2022-11-14T09:24:12.038Z,4.05
2022-11-14T09:27:54.200Z,4.30
2022-11-14T09:31:36.067Z,3.88
2022-11-14T09:35:18.112Z,4.47
2022-11-14T09:38:59.998Z,3.80
2022-11-14T09:43:23.961Z,4.57
2022-11-14T09:47:15.537Z,4.13
2022-11-14T09:51:28.276Z,3.47
2022-11-14T09:55:14.045Z,3.33
2022-11-14T09:58:56.594Z,3.40
2022-11-14T10:03:03.674Z,3.15
2022-11-14T10:07:07.597Z,3.03
2022-11-14T10:11:10.273Z,3.30
2022-11-14T10:15:12.343Z,2.83
2022-11-14T10:19:03.088Z,2.92
2022-11-14T10:22:47.775Z,2.58
2022-11-14T10:26:31.271Z,2.50
2022-11-14T10:30:16.419Z,2.50
2022-11-14T10:34:07.321Z,2.58
2022-11-14T10:37:51.960Z,2.95
2022-11-14T10:41:56.310Z,3.05
2022-11-14T10:45:51.043Z,2.72
2022-11-14T10:49:36.792Z,2.80
2022-11-14T10:53:45.874Z,1.90
2022-11-14T10:57:28.861Z,1.83
2022-11-14T11:01:43.223Z,1.60
2022-11-14T11:05:30.434Z,1.50
2022-11-14T11:09:45.136Z,1.23
2022-11-14T11:13:36.949Z,1.40
2022-11-14T11:17:22.714Z,1.20
2022-11-14T11:21:17.016Z,1.33
2022-11-14T11:24:58.971Z,1.23
2022-11-14T11:28:40.778Z,1.55
2022-11-14T11:32:26.687Z,1.35
2022-11-14T11:36:21.726Z,1.75
2022-11-14T11:40:07.063Z,1.35
2022-11-14T11:43:57.226Z,1.58
2022-11-14T11:47:43.017Z,1.70
2022-11-14T11:51:27.110Z,1.70
2022-11-14T11:55:08.988Z,1.83
2022-11-14T11:58:54.928Z,1.92
2022-11-14T12:02:46.317Z,1.67
2022-11-14T12:06:41.692Z,1.70
2022-11-14T12:10:26.736Z,1.80
2022-11-14T12:14:23.493Z,1.83
2022-11-14T12:18:33.178Z,1.60
2022-11-14T12:22:28.599Z,1.42
2022-11-14T12:26:16.355Z,1.45
2022-11-14T12:30:19.940Z,1.48
2022-11-14T12:34:11.511Z,1.42
2022-11-14T12:37:56.072Z,1.50
2022-11-14T12:41:40.289Z,1.50
2022-11-14T12:45:40.747Z,1.65
2022-11-14T12:49:48.412Z,1.63
2022-11-14T12:53:36.110Z,2.00
2022-11-14T12:57:45.925Z,1.85
2022-11-14T13:02:00.685Z,1.70
2022-11-14T13:06:21.034Z,1.88
2022-11-14T13:10:12.743Z,2.00
2022-11-14T13:14:20.924Z,1.73
2022-11-14T13:18:41.403Z,1.90
2022-11-14T13:22:46.594Z,1.50
2022-11-14T13:26:31.211Z,1.80
2022-11-14T13:30:13.169Z,1.35
2022-11-14T13:34:00.034Z,1.70
2022-11-14T13:38:12.839Z,1.70
2022-11-14T13:42:06.720Z,1.70
2022-11-14T13:46:07.017Z,1.80
2022-11-14T13:50:06.451Z,1.58
2022-11-14T13:53:48.505Z,1.08
2022-11-14T13:57:36.497Z,1.10
2022-11-14T14:01:30.681Z,0.98
2022-11-14T14:05:27.668Z,1.00
2022-11-14T14:09:25.180Z,1.05
2022-11-14T14:13:43.470Z,1.35
2022-11-14T14:17:44.017Z,1.10
2022-11-14T14:21:48.210Z,1.17
2022-11-14T14:25:44.852Z,1.52
2022-11-14T14:29:41.021Z,1.92
2022-11-14T14:33:22.891Z,2.00
2022-11-14T14:37:14.893Z,4.70
2022-11-14T14:40:57.521Z,5.15
2022-11-14T14:44:40.168Z,2.45
2022-11-14T14:48:28.754Z,2.30
2022-11-14T14:52:37.825Z,1.52
2022-11-14T14:56:26.996Z,0.70
2022-11-14T15:00:27.289Z,0.70
2022-11-14T15:04:15.092Z,0.70
2022-11-14T15:08:00.469Z,0.50
2022-11-14T15:11:44.832Z,0.22
2022-11-14T15:15:27.860Z,0.40
2022-11-14T15:19:15.117Z,0.35
2022-11-14T15:23:10.222Z,0.38
2022-11-14T15:26:52.154Z,0.30
2022-11-14T15:30:34.953Z,0.20
2022-11-14T15:34:34.336Z,0.50
2022-11-14T15:38:42.585Z,0.20
2022-11-14T15:42:23.981Z,0.20
2022-11-14T15:46:24.656Z,0.20
2022-11-14T15:50:31.357Z,0.17
2022-11-14T15:54:28.000Z,0.30
2022-11-14T15:58:27.589Z,0.30
2022-11-14T16:02:21.151Z,0.38
2022-11-14T16:06:03.173Z,0.20
2022-11-14T16:09:45.364Z,0.30
2022-11-14T16:13:27.283Z,0.20
2022-11-14T16:17:17.269Z,0.28
2022-11-14T16:20:59.707Z,0.30
2022-11-14T16:24:41.613Z,0.30
2022-11-14T16:28:23.561Z,0.25
2022-11-14T16:32:05.626Z,0.50
2022-11-14T16:35:47.521Z,0.90
2022-11-14T16:39:29.625Z,0.55
2022-11-14T16:43:14.489Z,0.52
2022-11-14T16:46:59.383Z,0.60
2022-11-14T16:50:41.242Z,0.77
2022-11-14T16:54:23.295Z,0.95
2022-11-14T16:58:05.158Z,1.45
2022-11-14T17:01:48.376Z,0.93
2022-11-14T17:05:30.380Z,0.73
2022-11-14T17:09:14.761Z,0.70
2022-11-14T17:12:56.631Z,0.70
2022-11-14T17:16:38.517Z,0.90
2022-11-14T17:20:20.402Z,1.30
2022-11-14T17:24:02.623Z,1.10
2022-11-14T17:27:44.543Z,1.17
2022-11-14T17:31:26.436Z,1.42
2022-11-14T17:35:09.073Z,1.40
2022-11-14T17:38:51.328Z,1.88
2022-11-14T17:42:33.210Z,2.15
2022-11-14T17:46:16.348Z,1.83
2022-11-14T17:49:58.380Z,2.20
2022-11-14T17:53:41.062Z,1.85
2022-11-14T17:57:22.937Z,1.70
2022-11-14T18:01:13.943Z,1.30
2022-11-14T18:04:55.971Z,1.50
2022-11-14T18:08:38.526Z,1.60
2022-11-14T18:12:20.440Z,1.85
2022-11-14T18:16:04.390Z,2.05
2022-11-14T18:19:46.364Z,2.30
2022-11-14T18:23:28.222Z,1.83
2022-11-14T18:27:10.085Z,1.70
2022-11-14T18:30:56.103Z,1.80
2022-11-14T18:34:38.516Z,2.13
2022-11-14T18:38:20.338Z,1.70
2022-11-14T18:42:02.270Z,2.22
2022-11-14T18:45:44.167Z,1.85
2022-11-14T18:49:28.360Z,1.65
2022-11-14T18:53:10.635Z,1.52
2022-11-14T18:56:52.513Z,1.80
2022-11-14T19:00:34.389Z,1.40
2022-11-14T19:04:19.807Z,1.10
2022-11-14T19:08:02.055Z,1.45
2022-11-14T19:12:02.713Z,5.03
2022-11-14T19:15:44.539Z,1.60
2022-11-14T19:19:26.965Z,1.60
2022-11-14T19:23:08.860Z,1.33
2022-11-14T19:26:50.768Z,1.38
2022-11-14T19:30:32.757Z,1.20
2022-11-14T19:34:15.331Z,1.20
2022-11-14T19:37:57.241Z,1.10
2022-11-14T19:41:39.189Z,1.10
2022-11-14T19:45:21.030Z,1.42
2022-11-14T19:49:03.975Z,1.70
2022-11-14T19:52:45.831Z,2.17
2022-11-14T19:56:28.200Z,1.73
2022-11-14T20:00:10.524Z,2.25
2022-11-14T20:03:57.555Z,2.00
2022-11-14T20:07:39.513Z,2.00
2022-11-14T20:11:22.202Z,1.88
2022-11-14T20:15:04.299Z,1.60
2022-11-14T20:18:57.433Z,1.58
2022-11-14T20:22:40.895Z,1.05
2022-11-14T20:26:23.210Z,1.30
2022-11-14T20:30:05.482Z,1.35
2022-11-14T20:33:48.977Z,1.67
2022-11-14T20:37:30.997Z,1.10
2022-11-14T20:41:13.073Z,1.17
2022-11-14T20:44:54.937Z,1.42
2022-11-14T20:48:36.819Z,2.17
2022-11-14T20:52:18.807Z,1.60
2022-11-14T20:56:01.184Z,0.90
2022-11-14T20:59:43.103Z,1.33
2022-11-14T21:03:25.780Z,1.17
2022-11-14T21:07:07.727Z,1.48
2022-11-14T21:10:50.886Z,0.90
2022-11-14T21:14:32.729Z,1.20
2022-11-14T21:18:14.599Z,1.42
2022-11-14T21:21:56.435Z,0.88
2022-11-14T21:25:38.278Z,1.15
2022-11-14T21:29:20.108Z,1.10
2022-11-14T21:33:01.968Z,1.30
2022-11-14T21:36:46.007Z,1.17
2022-11-14T21:40:28.420Z,1.10
2022-11-14T21:44:13.186Z,1.25
2022-11-14T21:47:55.478Z,1.00
2022-11-14T21:51:37.296Z,1.10
2022-11-14T21:55:19.141Z,0.80
2022-11-14T21:59:15.866Z,0.90
2022-11-14T22:07:08.446Z,1.10
2022-11-14T22:10:50.427Z,1.20
2022-11-14T22:14:32.258Z,1.48
2022-11-14T22:18:14.954Z,0.98
2022-11-14T22:21:56.839Z,1.10
2022-11-14T22:25:38.683Z,0.90
2022-11-14T22:29:20.547Z,1.00
2022-11-14T22:33:02.388Z,0.85
2022-11-14T22:36:44.232Z,0.90
2022-11-14T22:40:26.088Z,1.10
2022-11-14T22:44:07.980Z,1.10
2022-11-14T22:47:49.881Z,1.05
2022-11-14T22:51:31.907Z,0.88
2022-11-14T22:55:17.887Z,1.50
2022-11-14T22:59:00.651Z,0.80
2022-11-14T23:02:42.490Z,1.08
2022-11-14T23:06:24.997Z,0.90
2022-11-14T23:10:07.504Z,0.90
2022-11-14T23:13:54.270Z,0.65
2022-11-14T23:17:36.119Z,0.77
2022-11-14T23:21:23.841Z,1.00
2022-11-14T23:25:06.247Z,0.85
2022-11-14T23:28:48.160Z,1.15
2022-11-14T23:32:30.498Z,0.90
2022-11-14T23:36:12.357Z,1.02
2022-11-14T23:39:54.264Z,1.10
2022-11-14T23:43:36.112Z,0.70
2022-11-14T23:47:18.012Z,0.98
2022-11-14T23:50:59.827Z,1.42
2022-11-14T23:54:41.695Z,0.90
2022-11-14T23:58:25.238Z,0.90
